Terminal Aerodrome Forecast
Issued by NWS Greer, SC

Home | Current Version | Previous Version | Text Only | Print | Product List | Glossary On
Versions: 1 2 3 4 5 6 7 8 9 10 11 12 13 14 15
850
FTUS42 KGSP 310531
TAFGSP
TAF
KGSP 310531Z 3106/0106 01003KT P6SM BKN100
     FM310900 02003KT 6SM BR FEW250
      TEMPO 3109/3112 3SM BR
     FM311200 02004KT P6SM SCT080
     FM311800 08004KT P6SM SCT050 PROB30 3120/0102 4SM -TSRA
      BKN050CB=

USA.gov is the U.S. government's official web portal to all federal, state and local government web resources and services.